createdAt,value
2019-02-21T00:00:23.943Z,4.70
2019-02-21T00:05:12.128Z,4.70
2019-02-21T00:10:08.370Z,4.70
2019-02-21T00:15:02.932Z,4.60
2019-02-21T00:19:57.532Z,4.60
2019-02-21T00:24:52.196Z,4.60
2019-02-21T00:29:46.792Z,4.50
2019-02-21T00:34:41.365Z,4.40
2019-02-21T00:39:35.961Z,4.40
2019-02-21T00:44:30.567Z,4.10
2019-02-21T00:49:25.199Z,4.10
2019-02-21T00:54:19.858Z,4.10
2019-02-21T00:59:14.537Z,4.00
2019-02-21T01:04:09.122Z,4.00
2019-02-21T01:09:04.801Z,3.90
2019-02-21T01:13:59.361Z,3.90
2019-02-21T01:18:53.974Z,4.00
2019-02-21T01:23:48.535Z,3.90
2019-02-21T01:28:43.210Z,3.80
2019-02-21T01:33:37.863Z,3.70
2019-02-21T01:38:32.492Z,3.70
2019-02-21T01:43:27.033Z,3.70
2019-02-21T01:48:21.642Z,3.60
2019-02-21T01:53:16.281Z,3.50
2019-02-21T01:58:11.127Z,3.30
2019-02-21T02:03:05.848Z,3.30
2019-02-21T02:08:00.444Z,3.30
2019-02-21T02:12:55.045Z,3.20
2019-02-21T02:17:49.625Z,3.30
2019-02-21T02:23:03.545Z,3.30
2019-02-21T02:27:58.149Z,3.30
2019-02-21T02:32:52.738Z,3.20
2019-02-21T02:37:47.347Z,3.20
2019-02-21T02:42:41.907Z,3.20
2019-02-21T02:47:36.513Z,3.20
2019-02-21T02:52:31.099Z,3.10
2019-02-21T02:57:25.703Z,3.10
2019-02-21T03:02:20.270Z,3.00
2019-02-21T03:07:14.875Z,2.90
2019-02-21T03:12:09.446Z,2.70
2019-02-21T03:17:04.119Z,2.60
2019-02-21T03:21:58.682Z,2.50
2019-02-21T03:26:53.296Z,2.70
2019-02-21T03:31:54.767Z,2.70
2019-02-21T03:36:44.205Z,2.80
2019-02-21T03:41:38.853Z,2.90
2019-02-21T03:46:33.451Z,2.80
2019-02-21T03:51:28.038Z,2.70
2019-02-21T03:56:22.734Z,2.60
2019-02-21T04:01:17.504Z,2.50
2019-02-21T04:06:12.140Z,2.30
2019-02-21T04:11:06.784Z,2.20
2019-02-21T04:16:01.452Z,2.20
2019-02-21T04:20:56.122Z,2.20
2019-02-21T04:25:50.712Z,2.20
2019-02-21T04:30:45.292Z,2.30
2019-02-21T04:35:39.939Z,2.30
2019-02-21T04:40:34.567Z,2.10
2019-02-21T04:45:29.147Z,2.10
2019-02-21T04:50:23.739Z,2.10
2019-02-21T04:55:18.324Z,2.20
2019-02-21T05:00:14.026Z,2.30
2019-02-21T05:05:08.690Z,2.40
2019-02-21T05:10:03.283Z,2.50
2019-02-21T05:14:57.875Z,2.60
2019-02-21T05:19:52.475Z,2.50
2019-02-21T05:24:47.065Z,2.70
2019-02-21T05:29:41.666Z,2.70
2019-02-21T05:34:52.724Z,2.80
2019-02-21T05:39:54.479Z,2.80
2019-02-21T05:44:50.819Z,2.70
2019-02-21T05:49:54.382Z,2.60
2019-02-21T05:54:50.633Z,2.70
2019-02-21T05:59:50.472Z,2.60
2019-02-21T06:04:46.698Z,2.50
2019-02-21T06:09:45.589Z,2.50
2019-02-21T06:14:47.594Z,2.50
2019-02-21T06:19:52.532Z,2.60
2019-02-21T06:25:04.815Z,2.50
2019-02-21T06:30:01.051Z,2.40
2019-02-21T06:35:02.787Z,2.40
2019-02-21T06:39:57.713Z,2.40
2019-02-21T06:44:52.318Z,2.30
2019-02-21T06:49:46.963Z,2.40
2019-02-21T06:54:41.569Z,2.50
2019-02-21T06:59:43.230Z,2.70
2019-02-21T07:04:33.367Z,2.60
2019-02-21T07:09:28.288Z,2.60
2019-02-21T07:14:22.884Z,2.70
2019-02-21T07:19:17.473Z,2.80
2019-02-21T07:24:12.066Z,3.00
2019-02-21T07:29:06.690Z,3.30
2019-02-21T07:34:01.773Z,3.30
2019-02-21T07:39:13.637Z,3.40
2019-02-21T07:43:53.086Z,3.50
2019-02-21T07:48:47.649Z,3.70
2019-02-21T07:53:42.648Z,3.80
2019-02-21T07:58:39.548Z,4.00
2019-02-21T08:03:43.789Z,4.20
2019-02-21T08:08:32.348Z,4.20
2019-02-21T08:13:26.567Z,4.40
2019-02-21T08:18:21.251Z,4.50
2019-02-21T08:23:15.843Z,4.70
2019-02-21T08:28:11.303Z,4.60
2019-02-21T08:33:11.178Z,4.50
2019-02-21T08:38:06.350Z,4.40
2019-02-21T08:43:03.853Z,4.60
2019-02-21T08:47:57.499Z,4.70
2019-02-21T08:53:03.177Z,4.90
2019-02-21T08:58:02.529Z,5.10
2019-02-21T09:02:57.189Z,5.10
2019-02-21T09:07:51.875Z,5.10
2019-02-21T09:12:48.527Z,5.20
2019-02-21T09:17:42.899Z,5.40
2019-02-21T09:22:52.430Z,5.60
2019-02-21T09:27:51.475Z,5.70
2019-02-21T09:32:46.500Z,5.90
2019-02-21T09:38:00.830Z,6.10
2019-02-21T09:42:53.702Z,6.30
2019-02-21T09:47:49.098Z,6.40
2019-02-21T09:52:43.829Z,6.40
2019-02-21T09:57:38.532Z,6.50
2019-02-21T10:02:34.183Z,6.70
2019-02-21T10:07:29.727Z,6.70
2019-02-21T10:12:24.415Z,6.80
2019-02-21T10:17:19.095Z,7.10
2019-02-21T10:22:13.670Z,7.30
2019-02-21T10:27:08.280Z,7.50
2019-02-21T10:32:02.964Z,7.70
2019-02-21T10:37:00.543Z,7.90
2019-02-21T10:42:01.624Z,8.20
2019-02-21T10:47:02.158Z,8.50
2019-02-21T10:51:57.076Z,8.70
2019-02-21T10:56:51.774Z,8.90
2019-02-21T11:01:47.275Z,9.30
2019-02-21T11:06:42.052Z,9.40
2019-02-21T11:11:37.884Z,9.40
2019-02-21T11:16:32.590Z,9.70
2019-02-21T11:21:31.450Z,9.80
2019-02-21T11:26:26.599Z,10.10
2019-02-21T11:31:27.812Z,10.10
2019-02-21T11:36:29.019Z,10.20
2019-02-21T11:41:24.149Z,10.40
2019-02-21T11:46:18.871Z,10.60
2019-02-21T11:51:13.624Z,10.90
2019-02-21T11:56:15.783Z,11.00
2019-02-21T12:01:11.603Z,11.10
2019-02-21T12:06:06.345Z,11.00
2019-02-21T12:11:01.252Z,10.90
2019-02-21T12:15:55.929Z,11.00
2019-02-21T12:20:50.557Z,11.10
2019-02-21T12:25:45.222Z,11.30
2019-02-21T12:30:45.523Z,11.40
2019-02-21T12:35:40.486Z,11.50
2019-02-21T12:40:35.440Z,11.60
2019-02-21T12:45:30.241Z,11.70
2019-02-21T12:50:24.837Z,11.40
2019-02-21T12:55:27.952Z,11.50
2019-02-21T13:00:21.469Z,11.30
2019-02-21T13:05:16.287Z,11.10
2019-02-21T13:10:17.362Z,11.10
2019-02-21T13:15:15.497Z,11.40
2019-02-21T13:20:13.581Z,11.50
2019-02-21T13:25:12.410Z,11.60
2019-02-21T13:30:14.283Z,11.60
2019-02-21T13:35:10.604Z,11.50
2019-02-21T13:40:14.542Z,11.60
2019-02-21T13:45:12.053Z,11.20
2019-02-21T13:50:12.470Z,11.30
2019-02-21T13:55:08.223Z,11.50
2019-02-21T14:00:03.818Z,11.60
2019-02-21T14:04:58.987Z,11.80
2019-02-21T14:09:53.714Z,12.00
2019-02-21T14:14:48.298Z,12.40
2019-02-21T14:19:42.893Z,12.50
2019-02-21T14:24:44.822Z,12.50
2019-02-21T14:29:39.842Z,12.40
2019-02-21T14:34:34.403Z,12.60
2019-02-21T14:39:29.978Z,12.60
2019-02-21T14:44:25.350Z,12.90
2019-02-21T14:49:20.289Z,13.00
2019-02-21T14:54:16.487Z,13.30
2019-02-21T14:59:13.767Z,13.40
2019-02-21T15:04:08.422Z,13.00
2019-02-21T15:09:03.042Z,13.00
2019-02-21T15:13:57.751Z,13.10
2019-02-21T15:18:55.123Z,12.90
2019-02-21T15:23:48.773Z,12.70
2019-02-21T15:28:43.389Z,12.70
2019-02-21T15:33:38.071Z,12.60
2019-02-21T15:38:34.626Z,12.40
2019-02-21T15:43:29.563Z,12.30
2019-02-21T15:48:24.351Z,12.10
2019-02-21T15:53:19.073Z,11.90
2019-02-21T15:58:24.542Z,11.80
2019-02-21T16:03:19.144Z,11.60
2019-02-21T16:08:13.759Z,11.50
2019-02-21T16:13:08.568Z,11.40
2019-02-21T16:18:03.435Z,11.30
2019-02-21T16:22:58.264Z,11.20
2019-02-21T16:27:55.214Z,11.00
2019-02-21T16:32:49.410Z,10.90
2019-02-21T16:37:44.102Z,10.90
2019-02-21T16:42:38.693Z,10.80
2019-02-21T16:47:33.293Z,10.70
2019-02-21T16:52:28.000Z,10.60
2019-02-21T16:57:22.622Z,10.60
2019-02-21T17:02:17.201Z,10.50
2019-02-21T17:07:18.493Z,10.30
2019-02-21T17:12:08.124Z,10.10
2019-02-21T17:17:02.734Z,9.90
2019-02-21T17:21:57.303Z,9.80
2019-02-21T17:26:51.973Z,9.70
2019-02-21T17:31:46.690Z,9.60
2019-02-21T17:36:41.307Z,9.60
2019-02-21T17:41:35.896Z,9.50
2019-02-21T17:46:30.530Z,9.50
2019-02-21T17:51:25.167Z,9.40
2019-02-21T17:56:19.760Z,9.40
2019-02-21T18:01:14.350Z,9.30
2019-02-21T18:06:08.943Z,9.30
2019-02-21T18:11:06.353Z,9.30
2019-02-21T18:16:00.939Z,9.30
2019-02-21T18:20:55.526Z,9.20
2019-02-21T18:25:57.473Z,9.20
2019-02-21T18:30:52.077Z,9.10
2019-02-21T18:35:46.966Z,9.10
2019-02-21T18:40:41.619Z,9.00
2019-02-21T18:45:36.285Z,8.80
2019-02-21T18:50:38.319Z,8.70
2019-02-21T18:55:27.316Z,8.60
2019-02-21T19:00:24.770Z,8.60
2019-02-21T19:05:19.673Z,8.50
2019-02-21T19:10:19.630Z,8.50
2019-02-21T19:15:16.031Z,8.30
2019-02-21T19:20:14.144Z,8.20
2019-02-21T19:25:11.245Z,8.10
2019-02-21T19:30:22.355Z,8.00
2019-02-21T19:35:17.894Z,7.90
2019-02-21T19:40:12.746Z,7.90
2019-02-21T19:45:09.648Z,7.90
2019-02-21T19:50:06.884Z,7.80
2019-02-21T19:55:05.498Z,7.70
2019-02-21T20:00:00.360Z,7.60
2019-02-21T20:04:55.327Z,7.60
2019-02-21T20:09:50.043Z,7.60
2019-02-21T20:14:44.641Z,7.50
2019-02-21T20:19:39.311Z,7.50
2019-02-21T20:24:33.896Z,7.50
2019-02-21T20:29:28.568Z,7.40
2019-02-21T20:34:23.170Z,7.30
2019-02-21T20:39:17.845Z,7.30
2019-02-21T20:44:12.439Z,7.30
2019-02-21T20:49:07.135Z,7.30
2019-02-21T20:54:01.695Z,7.10
2019-02-21T20:58:56.354Z,7.00
2019-02-21T21:03:50.942Z,6.90
2019-02-21T21:08:46.728Z,6.70
2019-02-21T21:13:43.964Z,6.50
2019-02-21T21:18:37.777Z,6.30
2019-02-21T21:23:32.368Z,6.40
2019-02-21T21:28:26.958Z,6.40
2019-02-21T21:33:21.536Z,6.40
2019-02-21T21:38:23.762Z,6.40
2019-02-21T21:43:12.482Z,6.50
2019-02-21T21:48:07.136Z,6.50
2019-02-21T21:53:01.721Z,6.50
2019-02-21T21:57:56.320Z,6.50
2019-02-21T22:02:51.013Z,6.30
2019-02-21T22:07:45.583Z,6.40
2019-02-21T22:12:40.174Z,6.50
2019-02-21T22:17:34.776Z,6.50
2019-02-21T22:22:29.433Z,6.50
2019-02-21T22:27:24.831Z,6.50
2019-02-21T22:32:19.815Z,6.50
2019-02-21T22:37:14.385Z,6.60
2019-02-21T22:42:08.977Z,6.70
2019-02-21T22:47:03.558Z,6.70
2019-02-21T22:51:58.180Z,6.80
2019-02-21T22:56:52.809Z,6.90
2019-02-21T23:01:47.623Z,6.80
2019-02-21T23:06:58.411Z,6.70
2019-02-21T23:11:53.047Z,6.70
2019-02-21T23:16:48.177Z,6.70
2019-02-21T23:21:42.956Z,6.80
2019-02-21T23:26:37.612Z,6.70
2019-02-21T23:31:32.185Z,6.70
2019-02-21T23:36:26.776Z,6.80
2019-02-21T23:41:21.488Z,6.80
2019-02-21T23:46:16.117Z,6.90
2019-02-21T23:51:10.702Z,6.90
2019-02-21T23:56:05.355Z,6.90
